sensor_id;sensor_type;location;lat;lon;timestamp;P1;durP1;ratioP1;P2;durP2;ratioP2
25073;SDS011;13066;52.042;5.648;2023-09-12T00:02:14;55.22;;;37.78;;
25073;SDS011;13066;52.042;5.648;2023-09-12T00:04:42;57.40;;;37.35;;
25073;SDS011;13066;52.042;5.648;2023-09-12T00:07:11;52.97;;;37.03;;
25073;SDS011;13066;52.042;5.648;2023-09-12T00:09:39;47.50;;;36.65;;
25073;SDS011;13066;52.042;5.648;2023-09-12T00:12:08;56.08;;;38.67;;
25073;SDS011;13066;52.042;5.648;2023-09-12T00:14:36;51.78;;;37.15;;
25073;SDS011;13066;52.042;5.648;2023-09-12T00:17:04;50.70;;;38.17;;
25073;SDS011;13066;52.042;5.648;2023-09-12T00:19:32;52.10;;;37.47;;
25073;SDS011;13066;52.042;5.648;2023-09-12T00:22:00;50.20;;;35.67;;
25073;SDS011;13066;52.042;5.648;2023-09-12T00:24:28;53.38;;;36.70;;
25073;SDS011;13066;52.042;5.648;2023-09-12T00:26:56;55.10;;;38.40;;
25073;SDS011;13066;52.042;5.648;2023-09-12T00:29:25;53.97;;;38.38;;
25073;SDS011;13066;52.042;5.648;2023-09-12T00:31:53;50.80;;;36.45;;
25073;SDS011;13066;52.042;5.648;2023-09-12T00:34:21;51.65;;;37.75;;
25073;SDS011;13066;52.042;5.648;2023-09-12T00:36:49;54.00;;;37.13;;
25073;SDS011;13066;52.042;5.648;2023-09-12T00:39:17;56.40;;;38.55;;
25073;SDS011;13066;52.042;5.648;2023-09-12T00:41:45;52.85;;;38.78;;
25073;SDS011;13066;52.042;5.648;2023-09-12T00:44:13;52.20;;;37.67;;
25073;SDS011;13066;52.042;5.648;2023-09-12T00:46:42;55.00;;;38.40;;
25073;SDS011;13066;52.042;5.648;2023-09-12T00:49:12;51.95;;;36.95;;
25073;SDS011;13066;52.042;5.648;2023-09-12T00:51:41;50.50;;;36.03;;
25073;SDS011;13066;52.042;5.648;2023-09-12T00:54:09;51.78;;;38.35;;
25073;SDS011;13066;52.042;5.648;2023-09-12T00:56:39;53.00;;;38.60;;
25073;SDS011;13066;52.042;5.648;2023-09-12T00:59:07;53.28;;;38.63;;
25073;SDS011;13066;52.042;5.648;2023-09-12T01:01:35;52.60;;;37.72;;
25073;SDS011;13066;52.042;5.648;2023-09-12T01:04:05;53.75;;;37.75;;
25073;SDS011;13066;52.042;5.648;2023-09-12T01:06:45;52.97;;;37.05;;
25073;SDS011;13066;52.042;5.648;2023-09-12T01:09:14;52.15;;;36.90;;
25073;SDS011;13066;52.042;5.648;2023-09-12T01:11:43;61.80;;;39.72;;
25073;SDS011;13066;52.042;5.648;2023-09-12T01:14:10;56.47;;;40.45;;
25073;SDS011;13066;52.042;5.648;2023-09-12T01:16:39;55.72;;;39.13;;
25073;SDS011;13066;52.042;5.648;2023-09-12T01:19:09;54.05;;;37.20;;
25073;SDS011;13066;52.042;5.648;2023-09-12T01:21:47;60.90;;;39.13;;
25073;SDS011;13066;52.042;5.648;2023-09-12T01:27:22;54.65;;;37.80;;
25073;SDS011;13066;52.042;5.648;2023-09-12T01:29:53;56.85;;;38.50;;
25073;SDS011;13066;52.042;5.648;2023-09-12T01:32:25;53.58;;;37.30;;
25073;SDS011;13066;52.042;5.648;2023-09-12T01:34:54;52.33;;;38.08;;
25073;SDS011;13066;52.042;5.648;2023-09-12T01:37:22;50.22;;;36.60;;
25073;SDS011;13066;52.042;5.648;2023-09-12T01:39:50;55.95;;;38.30;;
25073;SDS011;13066;52.042;5.648;2023-09-12T01:42:20;51.15;;;37.78;;
25073;SDS011;13066;52.042;5.648;2023-09-12T01:44:50;54.70;;;37.65;;
25073;SDS011;13066;52.042;5.648;2023-09-12T01:47:18;55.13;;;38.65;;
25073;SDS011;13066;52.042;5.648;2023-09-12T01:49:48;55.63;;;38.42;;
25073;SDS011;13066;52.042;5.648;2023-09-12T01:52:19;53.08;;;36.97;;
25073;SDS011;13066;52.042;5.648;2023-09-12T01:54:47;57.65;;;37.05;;
25073;SDS011;13066;52.042;5.648;2023-09-12T01:57:15;52.30;;;37.67;;
25073;SDS011;13066;52.042;5.648;2023-09-12T01:59:44;56.53;;;38.28;;
25073;SDS011;13066;52.042;5.648;2023-09-12T02:02:12;45.65;;;34.92;;
25073;SDS011;13066;52.042;5.648;2023-09-12T02:04:40;54.60;;;37.53;;
25073;SDS011;13066;52.042;5.648;2023-09-12T02:07:08;49.22;;;36.55;;
25073;SDS011;13066;52.042;5.648;2023-09-12T02:09:36;52.85;;;35.85;;
25073;SDS011;13066;52.042;5.648;2023-09-12T02:12:04;48.72;;;35.03;;
25073;SDS011;13066;52.042;5.648;2023-09-12T02:14:32;51.00;;;37.63;;
25073;SDS011;13066;52.042;5.648;2023-09-12T02:17:01;55.20;;;37.13;;
25073;SDS011;13066;52.042;5.648;2023-09-12T02:19:29;55.28;;;37.75;;
25073;SDS011;13066;52.042;5.648;2023-09-12T02:21:57;50.67;;;37.08;;
25073;SDS011;13066;52.042;5.648;2023-09-12T02:24:25;51.25;;;36.95;;
25073;SDS011;13066;52.042;5.648;2023-09-12T02:26:54;53.00;;;37.28;;
25073;SDS011;13066;52.042;5.648;2023-09-12T02:29:22;49.65;;;35.85;;
25073;SDS011;13066;52.042;5.648;2023-09-12T02:31:49;53.00;;;37.10;;
25073;SDS011;13066;52.042;5.648;2023-09-12T02:34:19;49.15;;;35.75;;
25073;SDS011;13066;52.042;5.648;2023-09-12T02:36:47;51.35;;;37.42;;
25073;SDS011;13066;52.042;5.648;2023-09-12T02:39:15;51.90;;;36.95;;
25073;SDS011;13066;52.042;5.648;2023-09-12T02:41:43;46.78;;;34.55;;
25073;SDS011;13066;52.042;5.648;2023-09-12T02:44:11;54.63;;;39.30;;
25073;SDS011;13066;52.042;5.648;2023-09-12T02:46:39;47.00;;;32.85;;
25073;SDS011;13066;52.042;5.648;2023-09-12T02:49:07;53.05;;;39.05;;
25073;SDS011;13066;52.042;5.648;2023-09-12T02:51:39;59.45;;;37.25;;
25073;SDS011;13066;52.042;5.648;2023-09-12T02:54:07;47.25;;;36.53;;
25073;SDS011;13066;52.042;5.648;2023-09-12T02:56:36;56.20;;;37.67;;
25073;SDS011;13066;52.042;5.648;2023-09-12T02:59:03;54.75;;;36.42;;
25073;SDS011;13066;52.042;5.648;2023-09-12T03:01:32;51.58;;;37.08;;
25073;SDS011;13066;52.042;5.648;2023-09-12T03:04:00;50.92;;;37.60;;
25073;SDS011;13066;52.042;5.648;2023-09-12T03:06:28;51.80;;;37.45;;
25073;SDS011;13066;52.042;5.648;2023-09-12T03:08:58;56.85;;;39.28;;
25073;SDS011;13066;52.042;5.648;2023-09-12T03:11:28;57.95;;;38.15;;
25073;SDS011;13066;52.042;5.648;2023-09-12T03:13:56;57.97;;;38.65;;
25073;SDS011;13066;52.042;5.648;2023-09-12T03:16:24;54.38;;;38.45;;
25073;SDS011;13066;52.042;5.648;2023-09-12T03:18:52;51.30;;;36.00;;
25073;SDS011;13066;52.042;5.648;2023-09-12T03:21:20;56.10;;;38.60;;
25073;SDS011;13066;52.042;5.648;2023-09-12T03:23:48;53.28;;;37.47;;
25073;SDS011;13066;52.042;5.648;2023-09-12T03:26:17;48.90;;;36.65;;
25073;SDS011;13066;52.042;5.648;2023-09-12T03:28:45;61.88;;;39.05;;
25073;SDS011;13066;52.042;5.648;2023-09-12T03:31:13;55.58;;;38.03;;
25073;SDS011;13066;52.042;5.648;2023-09-12T03:33:42;53.72;;;37.38;;
25073;SDS011;13066;52.042;5.648;2023-09-12T03:36:15;52.40;;;38.75;;
25073;SDS011;13066;52.042;5.648;2023-09-12T03:38:43;59.08;;;40.13;;
25073;SDS011;13066;52.042;5.648;2023-09-12T03:41:11;56.65;;;38.35;;
25073;SDS011;13066;52.042;5.648;2023-09-12T03:43:41;53.95;;;38.50;;
25073;SDS011;13066;52.042;5.648;2023-09-12T03:46:09;56.33;;;38.67;;
25073;SDS011;13066;52.042;5.648;2023-09-12T03:48:37;53.05;;;37.50;;
25073;SDS011;13066;52.042;5.648;2023-09-12T03:51:05;56.58;;;40.05;;
25073;SDS011;13066;52.042;5.648;2023-09-12T03:53:33;55.05;;;39.42;;
25073;SDS011;13066;52.042;5.648;2023-09-12T03:56:01;54.22;;;38.15;;
25073;SDS011;13066;52.042;5.648;2023-09-12T03:58:29;51.75;;;38.17;;
25073;SDS011;13066;52.042;5.648;2023-09-12T04:00:59;55.97;;;37.58;;
25073;SDS011;13066;52.042;5.648;2023-09-12T04:03:27;55.65;;;37.38;;
25073;SDS011;13066;52.042;5.648;2023-09-12T04:05:55;51.65;;;36.17;;
25073;SDS011;13066;52.042;5.648;2023-09-12T04:08:22;53.00;;;37.65;;
25073;SDS011;13066;52.042;5.648;2023-09-12T04:10:50;52.55;;;38.15;;
25073;SDS011;13066;52.042;5.648;2023-09-12T04:13:19;51.28;;;36.88;;
25073;SDS011;13066;52.042;5.648;2023-09-12T04:15:47;51.78;;;36.15;;
25073;SDS011;13066;52.042;5.648;2023-09-12T04:18:16;45.47;;;34.83;;
25073;SDS011;13066;52.042;5.648;2023-09-12T04:20:45;46.00;;;35.30;;
25073;SDS011;13066;52.042;5.648;2023-09-12T04:23:12;43.67;;;33.22;;
25073;SDS011;13066;52.042;5.648;2023-09-12T04:25:41;48.88;;;35.28;;
25073;SDS011;13066;52.042;5.648;2023-09-12T04:28:09;42.35;;;31.60;;
25073;SDS011;13066;52.042;5.648;2023-09-12T04:30:37;48.20;;;34.80;;
25073;SDS011;13066;52.042;5.648;2023-09-12T04:33:06;43.70;;;33.28;;
25073;SDS011;13066;52.042;5.648;2023-09-12T04:35:35;43.90;;;32.15;;
25073;SDS011;13066;52.042;5.648;2023-09-12T04:38:03;45.80;;;34.20;;
25073;SDS011;13066;52.042;5.648;2023-09-12T04:40:31;46.22;;;35.03;;
25073;SDS011;13066;52.042;5.648;2023-09-12T04:42:59;51.33;;;35.90;;
25073;SDS011;13066;52.042;5.648;2023-09-12T04:45:30;50.70;;;35.67;;
25073;SDS011;13066;52.042;5.648;2023-09-12T04:48:00;47.35;;;35.88;;
25073;SDS011;13066;52.042;5.648;2023-09-12T04:50:29;51.97;;;36.22;;
25073;SDS011;13066;52.042;5.648;2023-09-12T04:52:58;55.30;;;36.78;;
25073;SDS011;13066;52.042;5.648;2023-09-12T04:55:26;48.10;;;36.10;;
25073;SDS011;13066;52.042;5.648;2023-09-12T04:57:55;50.85;;;36.30;;
25073;SDS011;13066;52.042;5.648;2023-09-12T05:00:23;50.10;;;35.92;;
25073;SDS011;13066;52.042;5.648;2023-09-12T05:02:51;48.80;;;36.15;;
25073;SDS011;13066;52.042;5.648;2023-09-12T05:05:19;45.78;;;34.78;;
25073;SDS011;13066;52.042;5.648;2023-09-12T05:07:47;48.33;;;34.05;;
25073;SDS011;13066;52.042;5.648;2023-09-12T05:10:17;43.65;;;32.42;;
25073;SDS011;13066;52.042;5.648;2023-09-12T05:12:46;48.33;;;36.03;;
25073;SDS011;13066;52.042;5.648;2023-09-12T05:15:14;47.85;;;35.38;;
25073;SDS011;13066;52.042;5.648;2023-09-12T05:17:42;51.08;;;37.30;;
25073;SDS011;13066;52.042;5.648;2023-09-12T05:20:10;55.83;;;38.58;;
25073;SDS011;13066;52.042;5.648;2023-09-12T05:22:38;54.88;;;37.30;;
25073;SDS011;13066;52.042;5.648;2023-09-12T05:25:07;55.80;;;38.10;;
25073;SDS011;13066;52.042;5.648;2023-09-12T05:27:37;61.25;;;40.80;;
25073;SDS011;13066;52.042;5.648;2023-09-12T05:30:05;57.50;;;38.22;;
25073;SDS011;13066;52.042;5.648;2023-09-12T05:32:34;53.15;;;37.08;;
25073;SDS011;13066;52.042;5.648;2023-09-12T05:35:03;54.15;;;38.40;;
25073;SDS011;13066;52.042;5.648;2023-09-12T05:37:47;61.58;;;40.97;;
25073;SDS011;13066;52.042;5.648;2023-09-12T05:40:15;57.65;;;38.03;;
25073;SDS011;13066;52.042;5.648;2023-09-12T05:42:44;56.40;;;36.45;;
25073;SDS011;13066;52.042;5.648;2023-09-12T05:45:12;54.40;;;37.20;;
25073;SDS011;13066;52.042;5.648;2023-09-12T05:47:41;55.45;;;38.38;;
25073;SDS011;13066;52.042;5.648;2023-09-12T05:50:09;50.53;;;36.58;;
25073;SDS011;13066;52.042;5.648;2023-09-12T05:52:38;58.53;;;38.28;;
25073;SDS011;13066;52.042;5.648;2023-09-12T05:55:09;66.97;;;41.25;;
25073;SDS011;13066;52.042;5.648;2023-09-12T05:57:38;59.20;;;38.50;;
25073;SDS011;13066;52.042;5.648;2023-09-12T06:00:08;64.63;;;42.20;;
25073;SDS011;13066;52.042;5.648;2023-09-12T06:02:39;68.50;;;42.53;;
25073;SDS011;13066;52.042;5.648;2023-09-12T06:05:08;60.22;;;40.53;;
25073;SDS011;13066;52.042;5.648;2023-09-12T06:07:36;69.70;;;42.03;;
25073;SDS011;13066;52.042;5.648;2023-09-12T06:10:08;68.55;;;43.90;;
25073;SDS011;13066;52.042;5.648;2023-09-12T06:12:36;63.97;;;41.88;;
25073;SDS011;13066;52.042;5.648;2023-09-12T06:15:05;64.55;;;42.38;;
25073;SDS011;13066;52.042;5.648;2023-09-12T06:17:35;63.08;;;42.45;;
25073;SDS011;13066;52.042;5.648;2023-09-12T06:20:03;70.47;;;44.67;;
25073;SDS011;13066;52.042;5.648;2023-09-12T06:22:33;69.03;;;42.28;;
25073;SDS011;13066;52.042;5.648;2023-09-12T06:25:02;68.35;;;43.22;;
25073;SDS011;13066;52.042;5.648;2023-09-12T06:27:30;70.90;;;45.25;;
25073;SDS011;13066;52.042;5.648;2023-09-12T06:29:58;79.18;;;45.35;;
25073;SDS011;13066;52.042;5.648;2023-09-12T06:32:26;72.93;;;44.55;;
25073;SDS011;13066;52.042;5.648;2023-09-12T06:34:56;75.03;;;44.53;;
25073;SDS011;13066;52.042;5.648;2023-09-12T06:37:24;69.25;;;43.45;;
25073;SDS011;13066;52.042;5.648;2023-09-12T06:39:51;71.35;;;45.88;;
25073;SDS011;13066;52.042;5.648;2023-09-12T06:42:19;71.15;;;44.05;;
25073;SDS011;13066;52.042;5.648;2023-09-12T06:44:47;78.53;;;45.50;;
25073;SDS011;13066;52.042;5.648;2023-09-12T06:47:15;68.47;;;43.78;;
25073;SDS011;13066;52.042;5.648;2023-09-12T06:49:43;74.10;;;45.13;;
25073;SDS011;13066;52.042;5.648;2023-09-12T06:52:19;111.95;;;47.28;;
25073;SDS011;13066;52.042;5.648;2023-09-12T06:54:47;81.03;;;45.35;;
25073;SDS011;13066;52.042;5.648;2023-09-12T06:57:15;78.55;;;46.30;;
25073;SDS011;13066;52.042;5.648;2023-09-12T06:59:43;73.35;;;45.38;;
25073;SDS011;13066;52.042;5.648;2023-09-12T07:02:11;81.97;;;47.75;;
25073;SDS011;13066;52.042;5.648;2023-09-12T07:04:40;69.78;;;43.58;;
25073;SDS011;13066;52.042;5.648;2023-09-12T07:07:07;76.15;;;46.13;;
25073;SDS011;13066;52.042;5.648;2023-09-12T07:09:37;70.45;;;44.38;;
25073;SDS011;13066;52.042;5.648;2023-09-12T07:12:05;70.63;;;44.90;;
25073;SDS011;13066;52.042;5.648;2023-09-12T07:14:33;74.45;;;43.58;;
25073;SDS011;13066;52.042;5.648;2023-09-12T07:17:05;78.80;;;45.90;;
25073;SDS011;13066;52.042;5.648;2023-09-12T07:19:33;73.88;;;43.75;;
25073;SDS011;13066;52.042;5.648;2023-09-12T07:22:01;75.45;;;44.92;;
25073;SDS011;13066;52.042;5.648;2023-09-12T07:24:29;79.90;;;45.90;;
25073;SDS011;13066;52.042;5.648;2023-09-12T07:26:59;75.90;;;43.75;;
25073;SDS011;13066;52.042;5.648;2023-09-12T07:29:26;79.60;;;46.53;;
25073;SDS011;13066;52.042;5.648;2023-09-12T07:31:55;75.43;;;45.72;;
25073;SDS011;13066;52.042;5.648;2023-09-12T07:34:26;71.00;;;42.97;;
25073;SDS011;13066;52.042;5.648;2023-09-12T07:36:54;71.72;;;44.08;;
25073;SDS011;13066;52.042;5.648;2023-09-12T07:39:22;64.95;;;41.13;;
25073;SDS011;13066;52.042;5.648;2023-09-12T07:41:50;64.15;;;39.97;;
25073;SDS011;13066;52.042;5.648;2023-09-12T07:44:19;69.50;;;43.42;;
25073;SDS011;13066;52.042;5.648;2023-09-12T07:46:47;66.88;;;41.55;;
25073;SDS011;13066;52.042;5.648;2023-09-12T07:49:16;70.70;;;43.05;;
25073;SDS011;13066;52.042;5.648;2023-09-12T07:51:43;66.75;;;42.42;;
25073;SDS011;13066;52.042;5.648;2023-09-12T07:54:11;66.85;;;41.83;;
25073;SDS011;13066;52.042;5.648;2023-09-12T07:56:39;65.22;;;41.97;;
25073;SDS011;13066;52.042;5.648;2023-09-12T07:59:07;67.68;;;42.60;;
25073;SDS011;13066;52.042;5.648;2023-09-12T08:01:37;66.80;;;43.75;;
25073;SDS011;13066;52.042;5.648;2023-09-12T08:04:05;67.63;;;42.53;;
25073;SDS011;13066;52.042;5.648;2023-09-12T08:06:34;66.57;;;41.97;;
25073;SDS011;13066;52.042;5.648;2023-09-12T08:09:21;69.88;;;43.42;;
25073;SDS011;13066;52.042;5.648;2023-09-12T08:11:49;72.47;;;44.13;;
25073;SDS011;13066;52.042;5.648;2023-09-12T08:14:17;80.00;;;48.92;;
25073;SDS011;13066;52.042;5.648;2023-09-12T08:16:49;66.78;;;41.97;;
25073;SDS011;13066;52.042;5.648;2023-09-12T08:19:17;70.00;;;45.05;;
25073;SDS011;13066;52.042;5.648;2023-09-12T08:21:45;70.05;;;45.25;;
25073;SDS011;13066;52.042;5.648;2023-09-12T08:24:13;70.78;;;43.38;;
25073;SDS011;13066;52.042;5.648;2023-09-12T08:26:41;70.03;;;44.85;;
25073;SDS011;13066;52.042;5.648;2023-09-12T08:29:09;72.55;;;45.60;;
25073;SDS011;13066;52.042;5.648;2023-09-12T08:31:37;71.22;;;45.17;;
25073;SDS011;13066;52.042;5.648;2023-09-12T08:34:06;72.22;;;44.00;;
25073;SDS011;13066;52.042;5.648;2023-09-12T08:36:34;60.30;;;39.75;;
25073;SDS011;13066;52.042;5.648;2023-09-12T08:39:03;66.82;;;41.63;;
25073;SDS011;13066;52.042;5.648;2023-09-12T08:41:31;66.28;;;41.22;;
25073;SDS011;13066;52.042;5.648;2023-09-12T08:44:00;64.95;;;39.00;;
25073;SDS011;13066;52.042;5.648;2023-09-12T08:46:28;62.92;;;37.20;;
25073;SDS011;13066;52.042;5.648;2023-09-12T08:48:56;58.10;;;35.95;;
25073;SDS011;13066;52.042;5.648;2023-09-12T08:51:26;57.72;;;34.75;;
25073;SDS011;13066;52.042;5.648;2023-09-12T08:53:54;53.58;;;34.60;;
25073;SDS011;13066;52.042;5.648;2023-09-12T08:56:22;57.08;;;33.88;;
25073;SDS011;13066;52.042;5.648;2023-09-12T08:58:51;49.30;;;30.92;;
25073;SDS011;13066;52.042;5.648;2023-09-12T09:01:19;35.70;;;24.73;;
25073;SDS011;13066;52.042;5.648;2023-09-12T09:03:47;36.42;;;24.15;;
25073;SDS011;13066;52.042;5.648;2023-09-12T09:06:15;35.97;;;23.45;;
25073;SDS011;13066;52.042;5.648;2023-09-12T09:08:45;39.20;;;25.02;;
25073;SDS011;13066;52.042;5.648;2023-09-12T09:11:13;37.53;;;23.15;;
25073;SDS011;13066;52.042;5.648;2023-09-12T09:13:41;35.40;;;22.95;;
25073;SDS011;13066;52.042;5.648;2023-09-12T09:16:10;38.65;;;24.27;;
25073;SDS011;13066;52.042;5.648;2023-09-12T09:18:54;31.63;;;21.92;;
25073;SDS011;13066;52.042;5.648;2023-09-12T09:21:25;35.65;;;22.02;;
25073;SDS011;13066;52.042;5.648;2023-09-12T09:23:55;27.95;;;17.60;;
25073;SDS011;13066;52.042;5.648;2023-09-12T09:26:25;21.95;;;15.80;;
25073;SDS011;13066;52.042;5.648;2023-09-12T09:29:03;26.55;;;17.63;;
25073;SDS011;13066;52.042;5.648;2023-09-12T09:31:31;19.42;;;12.70;;
25073;SDS011;13066;52.042;5.648;2023-09-12T09:34:00;19.80;;;13.90;;
25073;SDS011;13066;52.042;5.648;2023-09-12T09:36:31;25.25;;;13.40;;
25073;SDS011;13066;52.042;5.648;2023-09-12T09:39:01;19.50;;;13.55;;
25073;SDS011;13066;52.042;5.648;2023-09-12T09:41:31;21.45;;;13.20;;
25073;SDS011;13066;52.042;5.648;2023-09-12T09:44:00;22.83;;;14.70;;
25073;SDS011;13066;52.042;5.648;2023-09-12T09:46:28;24.17;;;14.88;;
25073;SDS011;13066;52.042;5.648;2023-09-12T09:48:56;25.30;;;15.50;;
25073;SDS011;13066;52.042;5.648;2023-09-12T09:51:25;26.92;;;16.80;;
25073;SDS011;13066;52.042;5.648;2023-09-12T09:53:54;30.63;;;18.40;;
25073;SDS011;13066;52.042;5.648;2023-09-12T09:56:26;30.73;;;18.85;;
25073;SDS011;13066;52.042;5.648;2023-09-12T09:58:54;37.17;;;21.30;;
25073;SDS011;13066;52.042;5.648;2023-09-12T10:01:23;38.03;;;21.90;;
25073;SDS011;13066;52.042;5.648;2023-09-12T10:03:58;36.38;;;23.35;;
25073;SDS011;13066;52.042;5.648;2023-09-12T10:06:27;35.33;;;24.42;;
25073;SDS011;13066;52.042;5.648;2023-09-12T10:08:56;34.83;;;23.67;;
25073;SDS011;13066;52.042;5.648;2023-09-12T10:11:28;36.70;;;22.13;;
25073;SDS011;13066;52.042;5.648;2023-09-12T10:13:56;36.33;;;24.58;;
25073;SDS011;13066;52.042;5.648;2023-09-12T10:16:27;36.67;;;24.63;;
25073;SDS011;13066;52.042;5.648;2023-09-12T10:18:58;35.05;;;23.20;;
25073;SDS011;13066;52.042;5.648;2023-09-12T10:21:29;38.70;;;23.35;;
25073;SDS011;13066;52.042;5.648;2023-09-12T10:23:59;33.33;;;21.58;;
25073;SDS011;13066;52.042;5.648;2023-09-12T10:26:29;32.05;;;21.90;;
25073;SDS011;13066;52.042;5.648;2023-09-12T10:28:58;40.88;;;24.52;;
25073;SDS011;13066;52.042;5.648;2023-09-12T10:31:27;44.78;;;27.10;;
25073;SDS011;13066;52.042;5.648;2023-09-12T10:33:55;43.05;;;25.52;;
25073;SDS011;13066;52.042;5.648;2023-09-12T10:36:23;39.33;;;25.48;;
25073;SDS011;13066;52.042;5.648;2023-09-12T10:38:53;42.25;;;24.77;;
25073;SDS011;13066;52.042;5.648;2023-09-12T10:41:22;40.20;;;24.85;;
25073;SDS011;13066;52.042;5.648;2023-09-12T10:43:53;45.88;;;26.92;;
25073;SDS011;13066;52.042;5.648;2023-09-12T10:46:21;39.60;;;26.33;;
25073;SDS011;13066;52.042;5.648;2023-09-12T10:48:50;36.28;;;25.08;;
25073;SDS011;13066;52.042;5.648;2023-09-12T10:51:19;29.98;;;20.25;;
25073;SDS011;13066;52.042;5.648;2023-09-12T10:53:48;30.80;;;20.83;;
25073;SDS011;13066;52.042;5.648;2023-09-12T10:56:17;33.70;;;20.52;;
25073;SDS011;13066;52.042;5.648;2023-09-12T11:01:40;29.42;;;18.90;;
25073;SDS011;13066;52.042;5.648;2023-09-12T11:07:01;34.92;;;22.90;;
25073;SDS011;13066;52.042;5.648;2023-09-12T11:09:28;32.80;;;20.10;;
25073;SDS011;13066;52.042;5.648;2023-09-12T11:11:58;31.73;;;20.73;;
25073;SDS011;13066;52.042;5.648;2023-09-12T11:14:28;32.63;;;20.10;;
25073;SDS011;13066;52.042;5.648;2023-09-12T11:19:50;30.85;;;19.25;;
25073;SDS011;13066;52.042;5.648;2023-09-12T11:22:23;33.85;;;19.08;;
25073;SDS011;13066;52.042;5.648;2023-09-12T11:24:52;32.13;;;20.52;;
25073;SDS011;13066;52.042;5.648;2023-09-12T11:27:23;32.72;;;20.67;;
25073;SDS011;13066;52.042;5.648;2023-09-12T11:29:53;30.77;;;19.02;;
25073;SDS011;13066;52.042;5.648;2023-09-12T11:32:31;34.03;;;19.90;;
25073;SDS011;13066;52.042;5.648;2023-09-12T11:35:00;35.17;;;20.48;;
25073;SDS011;13066;52.042;5.648;2023-09-12T11:37:33;35.45;;;21.00;;
25073;SDS011;13066;52.042;5.648;2023-09-12T11:40:14;35.08;;;19.75;;
25073;SDS011;13066;52.042;5.648;2023-09-12T11:42:44;29.55;;;18.83;;
25073;SDS011;13066;52.042;5.648;2023-09-12T11:45:15;33.63;;;19.02;;
25073;SDS011;13066;52.042;5.648;2023-09-12T11:47:46;27.80;;;18.10;;
25073;SDS011;13066;52.042;5.648;2023-09-12T11:53:01;30.98;;;20.48;;
25073;SDS011;13066;52.042;5.648;2023-09-12T11:55:33;25.40;;;18.92;;
25073;SDS011;13066;52.042;5.648;2023-09-12T11:58:01;37.25;;;20.15;;
25073;SDS011;13066;52.042;5.648;2023-09-12T12:00:32;34.03;;;20.80;;
25073;SDS011;13066;52.042;5.648;2023-09-12T12:03:00;32.92;;;21.10;;
25073;SDS011;13066;52.042;5.648;2023-09-12T12:05:28;36.35;;;22.38;;
25073;SDS011;13066;52.042;5.648;2023-09-12T12:07:57;32.38;;;20.92;;
25073;SDS011;13066;52.042;5.648;2023-09-12T12:10:49;32.17;;;20.83;;
25073;SDS011;13066;52.042;5.648;2023-09-12T12:13:17;31.83;;;19.98;;
25073;SDS011;13066;52.042;5.648;2023-09-12T12:15:47;26.58;;;17.60;;
25073;SDS011;13066;52.042;5.648;2023-09-12T12:18:15;24.83;;;17.55;;
25073;SDS011;13066;52.042;5.648;2023-09-12T12:20:43;25.42;;;16.95;;
25073;SDS011;13066;52.042;5.648;2023-09-12T12:23:11;24.30;;;16.73;;
25073;SDS011;13066;52.042;5.648;2023-09-12T12:25:40;29.13;;;17.95;;
25073;SDS011;13066;52.042;5.648;2023-09-12T12:28:07;32.05;;;20.33;;
25073;SDS011;13066;52.042;5.648;2023-09-12T12:30:36;32.85;;;19.67;;
25073;SDS011;13066;52.042;5.648;2023-09-12T12:33:08;28.95;;;19.02;;
25073;SDS011;13066;52.042;5.648;2023-09-12T12:35:59;24.80;;;16.80;;
25073;SDS011;13066;52.042;5.648;2023-09-12T12:38:31;30.10;;;17.63;;
25073;SDS011;13066;52.042;5.648;2023-09-12T12:41:01;25.30;;;16.30;;
25073;SDS011;13066;52.042;5.648;2023-09-12T12:43:29;27.45;;;17.50;;
25073;SDS011;13066;52.042;5.648;2023-09-12T12:45:58;28.02;;;17.95;;
25073;SDS011;13066;52.042;5.648;2023-09-12T12:48:31;26.35;;;17.95;;
25073;SDS011;13066;52.042;5.648;2023-09-12T12:50:59;29.65;;;19.73;;
25073;SDS011;13066;52.042;5.648;2023-09-12T12:53:38;24.10;;;18.08;;
25073;SDS011;13066;52.042;5.648;2023-09-12T12:56:19;24.58;;;15.65;;
25073;SDS011;13066;52.042;5.648;2023-09-12T12:58:49;27.45;;;17.05;;
25073;SDS011;13066;52.042;5.648;2023-09-12T13:01:18;24.60;;;16.67;;
25073;SDS011;13066;52.042;5.648;2023-09-12T13:03:48;23.20;;;14.95;;
25073;SDS011;13066;52.042;5.648;2023-09-12T13:06:17;19.17;;;12.50;;
25073;SDS011;13066;52.042;5.648;2023-09-12T13:08:46;17.98;;;10.98;;
25073;SDS011;13066;52.042;5.648;2023-09-12T13:11:15;17.30;;;10.20;;
25073;SDS011;13066;52.042;5.648;2023-09-12T13:13:44;17.33;;;10.85;;
25073;SDS011;13066;52.042;5.648;2023-09-12T13:16:13;16.25;;;10.57;;
25073;SDS011;13066;52.042;5.648;2023-09-12T13:18:41;18.92;;;10.45;;
25073;SDS011;13066;52.042;5.648;2023-09-12T13:21:11;18.67;;;9.55;;
25073;SDS011;13066;52.042;5.648;2023-09-12T13:23:39;19.52;;;10.68;;
25073;SDS011;13066;52.042;5.648;2023-09-12T13:26:08;15.45;;;11.82;;
25073;SDS011;13066;52.042;5.648;2023-09-12T13:28:37;19.58;;;11.90;;
25073;SDS011;13066;52.042;5.648;2023-09-12T13:31:05;16.45;;;10.10;;
25073;SDS011;13066;52.042;5.648;2023-09-12T13:33:33;13.82;;;8.40;;
25073;SDS011;13066;52.042;5.648;2023-09-12T13:36:01;15.35;;;8.90;;
25073;SDS011;13066;52.042;5.648;2023-09-12T13:38:31;16.10;;;8.20;;
25073;SDS011;13066;52.042;5.648;2023-09-12T13:40:59;12.50;;;8.27;;
25073;SDS011;13066;52.042;5.648;2023-09-12T13:43:27;10.35;;;6.57;;
25073;SDS011;13066;52.042;5.648;2023-09-12T13:45:55;10.57;;;6.00;;
25073;SDS011;13066;52.042;5.648;2023-09-12T13:48:23;12.77;;;5.47;;
25073;SDS011;13066;52.042;5.648;2023-09-12T13:50:52;8.30;;;5.32;;
25073;SDS011;13066;52.042;5.648;2023-09-12T13:53:20;13.35;;;4.95;;
25073;SDS011;13066;52.042;5.648;2023-09-12T13:55:49;11.20;;;5.28;;
25073;SDS011;13066;52.042;5.648;2023-09-12T13:58:34;9.20;;;5.38;;
25073;SDS011;13066;52.042;5.648;2023-09-12T14:01:13;13.52;;;5.85;;
25073;SDS011;13066;52.042;5.648;2023-09-12T14:03:53;10.18;;;5.55;;
25073;SDS011;13066;52.042;5.648;2023-09-12T14:06:22;10.90;;;5.95;;
25073;SDS011;13066;52.042;5.648;2023-09-12T14:08:51;10.07;;;6.57;;
25073;SDS011;13066;52.042;5.648;2023-09-12T14:11:21;12.93;;;8.60;;
25073;SDS011;13066;52.042;5.648;2023-09-12T14:13:59;17.45;;;12.57;;
25073;SDS011;13066;52.042;5.648;2023-09-12T14:16:41;18.38;;;11.70;;
25073;SDS011;13066;52.042;5.648;2023-09-12T14:19:14;15.95;;;11.27;;
25073;SDS011;13066;52.042;5.648;2023-09-12T14:21:43;17.33;;;11.55;;
25073;SDS011;13066;52.042;5.648;2023-09-12T14:24:13;19.70;;;12.02;;
25073;SDS011;13066;52.042;5.648;2023-09-12T14:26:42;21.85;;;11.68;;
25073;SDS011;13066;52.042;5.648;2023-09-12T14:29:11;18.90;;;10.57;;
25073;SDS011;13066;52.042;5.648;2023-09-12T14:31:40;16.35;;;10.75;;
25073;SDS011;13066;52.042;5.648;2023-09-12T14:34:17;17.63;;;10.77;;
25073;SDS011;13066;52.042;5.648;2023-09-12T14:36:44;13.95;;;10.38;;
25073;SDS011;13066;52.042;5.648;2023-09-12T14:39:14;18.10;;;12.43;;
25073;SDS011;13066;52.042;5.648;2023-09-12T14:41:43;21.85;;;13.10;;
25073;SDS011;13066;52.042;5.648;2023-09-12T14:44:16;19.10;;;11.30;;
25073;SDS011;13066;52.042;5.648;2023-09-12T14:46:44;17.90;;;10.32;;
25073;SDS011;13066;52.042;5.648;2023-09-12T14:49:12;15.35;;;10.70;;
25073;SDS011;13066;52.042;5.648;2023-09-12T14:51:41;12.18;;;9.20;;